MAPA DE AEROPUERTO

INFORMACIÓN METAR y TAF

METAR FOR LTAI
ADDS - METARS form results

(1235 UTC 26 February 2021)
Data provider http://aviationweather.gov/metar/data/
 
METAR text: LTAI 261220Z 21010KT CAVOK 19/03 Q1020 NOSIG RMK RWY18C 18010KT RWY36R 20010KT RWY18L 19009KT
Conditions at: LTAI (ANTALYA (CIV/MIL, TR) observed 1220 UTC 26 February 2021
Temperature: 19.0°C (66°F)
Dewpoint: 3.0°C (37°F) [RH = 34%]
Pressure (altimeter): 30.12 inches Hg (1020.0 mb)
Winds: from the SSW (210 degrees) at 12 MPH (10 knots; 5.1 m/s)
Visibility: 6 or more miles (10+ km)
Ceiling: ceiling and visibility are OK
Clouds: unknown
Weather: no significant weather observed at this time

METAR text: LTAI 261150Z 20009KT CAVOK 19/03 Q1021 NOSIG RMK RWY18C 18008KT RWY36R 20009KT RWY18L 18009KT
Conditions at: LTAI (ANTALYA (CIV/MIL, TR) observed 1150 UTC 26 February 2021
Temperature: 19.0°C (66°F)
Dewpoint: 3.0°C (37°F) [RH = 34%]
Pressure (altimeter): 30.15 inches Hg (1021.0 mb)
Winds: from the SSW (200 degrees) at 10 MPH (9 knots; 4.6 m/s)
Visibility: 6 or more miles (10+ km)
Ceiling: ceiling and visibility are OK
Clouds: unknown
Weather: no significant weather observed at this time

Forecast for: LTAI (ANTALYA (CIV/MIL, TR)
Text: TAF LTAI 261040Z 2612/2712 18010KT CAVOK
Forecast period: 1200 to 1500 UTC 26 February 2021
Forecast type: FROM: standard forecast or significant change
Winds: from the S (180 degrees) at 12 MPH (10 knots; 5.1 m/s)
Visibility: 6 or more miles (10+ km)
Ceiling: unknown
Clouds: missing
Weather: NSW  (no significant weather)
Text: BECMG 2615/2618 34006KT
Forecast period: 1500 UTC 26 February 2021 to 0900 UTC 27 February 2021
Forecast type: BECOMING: Conditions expected to become as follows by 1800 UTC 26 February 2021
Winds: from the NNW (340 degrees) at 7 MPH (6 knots; 3.1 m/s)
Visibility: 6 or more miles (10+ km)
Ceiling: unknown
Clouds: missing
Weather: NSW  (no significant weather)
Text: BECMG 2709/2712 18010KT
Forecast period: 0900 to 1200 UTC 27 February 2021
Forecast type: BECOMING: Conditions expected to become as follows by 1200 UTC 27 February 2021
Winds: from the S (180 degrees) at 12 MPH (10 knots; 5.1 m/s)
Visibility: 6 or more miles (10+ km)
Ceiling: unknown
Clouds: missing
Weather: NSW  (no significant weather)